sensor_id;sensor_type;location;lat;lon;timestamp;temperature;humidity
7844;DHT22;3967;48.702;9.326;2023-04-08T00:00:55;9.80;99.90
7844;DHT22;3967;48.702;9.326;2023-04-08T00:03:22;9.80;99.90
7844;DHT22;3967;48.702;9.326;2023-04-08T00:05:49;9.80;99.90
7844;DHT22;3967;48.702;9.326;2023-04-08T00:08:16;9.80;99.90
7844;DHT22;3967;48.702;9.326;2023-04-08T00:10:43;9.80;99.90
7844;DHT22;3967;48.702;9.326;2023-04-08T00:13:10;9.60;99.90
7844;DHT22;3967;48.702;9.326;2023-04-08T00:15:37;9.60;99.90
7844;DHT22;3967;48.702;9.326;2023-04-08T00:18:03;9.60;99.90
7844;DHT22;3967;48.702;9.326;2023-04-08T00:20:30;9.60;99.90
7844;DHT22;3967;48.702;9.326;2023-04-08T00:22:57;9.60;99.90
7844;DHT22;3967;48.702;9.326;2023-04-08T00:25:24;9.60;99.90
7844;DHT22;3967;48.702;9.326;2023-04-08T00:27:51;9.60;99.90
7844;DHT22;3967;48.702;9.326;2023-04-08T00:30:18;9.50;99.90
7844;DHT22;3967;48.702;9.326;2023-04-08T00:32:45;9.50;99.90
7844;DHT22;3967;48.702;9.326;2023-04-08T00:35:12;9.50;99.90
7844;DHT22;3967;48.702;9.326;2023-04-08T00:37:39;9.50;99.90
7844;DHT22;3967;48.702;9.326;2023-04-08T00:40:07;9.40;99.90
7844;DHT22;3967;48.702;9.326;2023-04-08T00:42:34;9.40;99.90
7844;DHT22;3967;48.702;9.326;2023-04-08T00:45:00;9.50;99.90
7844;DHT22;3967;48.702;9.326;2023-04-08T00:47:27;9.40;99.90
7844;DHT22;3967;48.702;9.326;2023-04-08T00:49:54;9.30;99.90
7844;DHT22;3967;48.702;9.326;2023-04-08T00:52:21;9.30;99.90
7844;DHT22;3967;48.702;9.326;2023-04-08T00:54:47;9.30;99.90
7844;DHT22;3967;48.702;9.326;2023-04-08T00:57:14;9.10;99.90
7844;DHT22;3967;48.702;9.326;2023-04-08T00:59:41;9.00;99.90
7844;DHT22;3967;48.702;9.326;2023-04-08T01:02:18;9.10;99.90
7844;DHT22;3967;48.702;9.326;2023-04-08T01:04:55;9.10;99.90
7844;DHT22;3967;48.702;9.326;2023-04-08T01:07:36;9.10;99.90
7844;DHT22;3967;48.702;9.326;2023-04-08T01:10:17;8.90;99.90
7844;DHT22;3967;48.702;9.326;2023-04-08T01:12:54;8.90;99.90
7844;DHT22;3967;48.702;9.326;2023-04-08T01:15:23;9.00;99.90
7844;DHT22;3967;48.702;9.326;2023-04-08T01:17:55;9.00;99.90
7844;DHT22;3967;48.702;9.326;2023-04-08T01:20:24;8.90;99.90
7844;DHT22;3967;48.702;9.326;2023-04-08T01:25:30;8.90;99.90
7844;DHT22;3967;48.702;9.326;2023-04-08T01:27:59;8.90;99.90
7844;DHT22;3967;48.702;9.326;2023-04-08T01:30:27;8.80;99.90
7844;DHT22;3967;48.702;9.326;2023-04-08T01:32:57;8.80;99.90
7844;DHT22;3967;48.702;9.326;2023-04-08T01:35:26;8.90;99.90
7844;DHT22;3967;48.702;9.326;2023-04-08T01:37:54;8.80;99.90
7844;DHT22;3967;48.702;9.326;2023-04-08T01:40:22;8.80;99.90
7844;DHT22;3967;48.702;9.326;2023-04-08T01:42:50;8.70;99.90
7844;DHT22;3967;48.702;9.326;2023-04-08T01:45:18;8.80;99.90
7844;DHT22;3967;48.702;9.326;2023-04-08T01:47:47;8.90;99.90
7844;DHT22;3967;48.702;9.326;2023-04-08T01:50:15;8.90;99.90
7844;DHT22;3967;48.702;9.326;2023-04-08T01:52:47;8.90;99.90
7844;DHT22;3967;48.702;9.326;2023-04-08T01:55:15;8.90;99.90
7844;DHT22;3967;48.702;9.326;2023-04-08T01:57:45;8.90;99.90
7844;DHT22;3967;48.702;9.326;2023-04-08T02:00:17;8.80;99.90
7844;DHT22;3967;48.702;9.326;2023-04-08T02:02:44;8.90;99.90
7844;DHT22;3967;48.702;9.326;2023-04-08T02:05:13;8.90;99.90
7844;DHT22;3967;48.702;9.326;2023-04-08T02:07:39;8.70;99.90
7844;DHT22;3967;48.702;9.326;2023-04-08T02:10:07;8.70;99.90
7844;DHT22;3967;48.702;9.326;2023-04-08T02:12:33;8.80;99.90
7844;DHT22;3967;48.702;9.326;2023-04-08T02:15:00;8.80;99.90
7844;DHT22;3967;48.702;9.326;2023-04-08T02:17:51;8.80;99.90
7844;DHT22;3967;48.702;9.326;2023-04-08T02:20:49;8.80;99.90
7844;DHT22;3967;48.702;9.326;2023-04-08T02:23:19;8.90;99.90
7844;DHT22;3967;48.702;9.326;2023-04-08T02:25:47;8.80;99.90
7844;DHT22;3967;48.702;9.326;2023-04-08T02:28:14;8.80;99.90
7844;DHT22;3967;48.702;9.326;2023-04-08T02:30:49;8.90;99.90
7844;DHT22;3967;48.702;9.326;2023-04-08T02:33:21;8.80;99.90
7844;DHT22;3967;48.702;9.326;2023-04-08T02:35:50;8.80;99.90
7844;DHT22;3967;48.702;9.326;2023-04-08T02:38:17;8.90;99.90
7844;DHT22;3967;48.702;9.326;2023-04-08T02:40:44;8.80;99.90
7844;DHT22;3967;48.702;9.326;2023-04-08T02:43:11;8.90;99.90
7844;DHT22;3967;48.702;9.326;2023-04-08T02:45:40;8.80;99.90
7844;DHT22;3967;48.702;9.326;2023-04-08T02:48:07;8.80;99.90
7844;DHT22;3967;48.702;9.326;2023-04-08T02:50:34;8.80;99.90
7844;DHT22;3967;48.702;9.326;2023-04-08T02:53:02;8.70;99.90
7844;DHT22;3967;48.702;9.326;2023-04-08T02:55:29;8.70;99.90
7844;DHT22;3967;48.702;9.326;2023-04-08T02:57:55;8.70;99.90
7844;DHT22;3967;48.702;9.326;2023-04-08T03:00:22;8.80;99.90
7844;DHT22;3967;48.702;9.326;2023-04-08T03:02:49;8.80;99.90
7844;DHT22;3967;48.702;9.326;2023-04-08T03:05:16;8.80;99.90
7844;DHT22;3967;48.702;9.326;2023-04-08T03:07:42;8.80;99.90
7844;DHT22;3967;48.702;9.326;2023-04-08T03:10:09;8.80;99.90
7844;DHT22;3967;48.702;9.326;2023-04-08T03:12:36;8.60;99.90
7844;DHT22;3967;48.702;9.326;2023-04-08T03:15:03;8.60;99.90
7844;DHT22;3967;48.702;9.326;2023-04-08T03:17:30;8.70;99.90
7844;DHT22;3967;48.702;9.326;2023-04-08T03:20:02;8.70;99.90
7844;DHT22;3967;48.702;9.326;2023-04-08T03:22:30;8.80;99.90
7844;DHT22;3967;48.702;9.326;2023-04-08T03:24:57;8.90;99.90
7844;DHT22;3967;48.702;9.326;2023-04-08T03:27:24;8.90;99.90
7844;DHT22;3967;48.702;9.326;2023-04-08T03:29:51;8.90;99.90
7844;DHT22;3967;48.702;9.326;2023-04-08T03:32:18;8.90;99.90
7844;DHT22;3967;48.702;9.326;2023-04-08T03:34:45;9.00;99.90
7844;DHT22;3967;48.702;9.326;2023-04-08T03:37:12;9.00;99.90
7844;DHT22;3967;48.702;9.326;2023-04-08T03:39:39;8.90;99.90
7844;DHT22;3967;48.702;9.326;2023-04-08T03:42:05;8.90;99.90
7844;DHT22;3967;48.702;9.326;2023-04-08T03:44:32;8.80;99.90
7844;DHT22;3967;48.702;9.326;2023-04-08T03:46:59;8.90;99.90
7844;DHT22;3967;48.702;9.326;2023-04-08T03:49:25;9.00;99.90
7844;DHT22;3967;48.702;9.326;2023-04-08T03:51:52;8.90;99.90
7844;DHT22;3967;48.702;9.326;2023-04-08T03:54:19;8.80;99.90
7844;DHT22;3967;48.702;9.326;2023-04-08T03:56:45;8.90;99.90
7844;DHT22;3967;48.702;9.326;2023-04-08T03:59:12;8.70;99.90
7844;DHT22;3967;48.702;9.326;2023-04-08T04:01:39;8.80;99.90
7844;DHT22;3967;48.702;9.326;2023-04-08T04:04:07;8.80;99.90
7844;DHT22;3967;48.702;9.326;2023-04-08T04:06:34;8.70;99.90
7844;DHT22;3967;48.702;9.326;2023-04-08T04:09:01;8.70;99.90
7844;DHT22;3967;48.702;9.326;2023-04-08T04:11:28;8.70;99.90
7844;DHT22;3967;48.702;9.326;2023-04-08T04:13:54;8.80;99.90
7844;DHT22;3967;48.702;9.326;2023-04-08T04:16:21;8.80;99.90
7844;DHT22;3967;48.702;9.326;2023-04-08T04:18:48;8.80;99.90
7844;DHT22;3967;48.702;9.326;2023-04-08T04:21:15;8.80;99.90
7844;DHT22;3967;48.702;9.326;2023-04-08T04:23:42;8.80;99.90
7844;DHT22;3967;48.702;9.326;2023-04-08T04:26:09;8.70;99.90
7844;DHT22;3967;48.702;9.326;2023-04-08T04:28:36;8.70;99.90
7844;DHT22;3967;48.702;9.326;2023-04-08T04:31:03;8.60;99.90
7844;DHT22;3967;48.702;9.326;2023-04-08T04:33:30;8.50;99.90
7844;DHT22;3967;48.702;9.326;2023-04-08T04:35:57;8.60;99.90
7844;DHT22;3967;48.702;9.326;2023-04-08T04:38:24;8.40;99.90
7844;DHT22;3967;48.702;9.326;2023-04-08T04:40:50;8.50;99.90
7844;DHT22;3967;48.702;9.326;2023-04-08T04:43:17;8.50;99.90
7844;DHT22;3967;48.702;9.326;2023-04-08T04:45:44;8.50;99.90
7844;DHT22;3967;48.702;9.326;2023-04-08T04:48:10;8.60;99.90
7844;DHT22;3967;48.702;9.326;2023-04-08T04:50:37;8.60;99.90
7844;DHT22;3967;48.702;9.326;2023-04-08T04:53:04;8.60;99.90
7844;DHT22;3967;48.702;9.326;2023-04-08T04:55:31;8.70;99.90
7844;DHT22;3967;48.702;9.326;2023-04-08T04:57:57;8.70;99.90
7844;DHT22;3967;48.702;9.326;2023-04-08T05:00:24;8.60;99.90
7844;DHT22;3967;48.702;9.326;2023-04-08T05:02:51;8.60;99.90
7844;DHT22;3967;48.702;9.326;2023-04-08T05:05:18;8.60;99.90
7844;DHT22;3967;48.702;9.326;2023-04-08T05:07:45;8.60;99.90
7844;DHT22;3967;48.702;9.326;2023-04-08T05:10:11;8.70;99.90
7844;DHT22;3967;48.702;9.326;2023-04-08T05:12:38;8.70;99.90
7844;DHT22;3967;48.702;9.326;2023-04-08T05:15:05;8.70;99.90
7844;DHT22;3967;48.702;9.326;2023-04-08T05:17:32;8.50;99.90
7844;DHT22;3967;48.702;9.326;2023-04-08T05:19:59;8.30;99.90
7844;DHT22;3967;48.702;9.326;2023-04-08T05:22:26;8.30;99.90
7844;DHT22;3967;48.702;9.326;2023-04-08T05:24:53;8.30;99.90
7844;DHT22;3967;48.702;9.326;2023-04-08T05:27:19;8.30;99.90
7844;DHT22;3967;48.702;9.326;2023-04-08T05:29:47;8.30;99.90
7844;DHT22;3967;48.702;9.326;2023-04-08T05:32:14;8.30;99.90
7844;DHT22;3967;48.702;9.326;2023-04-08T05:34:42;8.30;99.90
7844;DHT22;3967;48.702;9.326;2023-04-08T05:37:09;8.30;99.90
7844;DHT22;3967;48.702;9.326;2023-04-08T05:39:36;8.30;99.90
7844;DHT22;3967;48.702;9.326;2023-04-08T05:42:03;8.30;99.90
7844;DHT22;3967;48.702;9.326;2023-04-08T05:44:30;8.40;99.90
7844;DHT22;3967;48.702;9.326;2023-04-08T05:46:56;8.40;99.90
7844;DHT22;3967;48.702;9.326;2023-04-08T05:49:23;8.40;99.90
7844;DHT22;3967;48.702;9.326;2023-04-08T05:51:50;8.40;99.90
7844;DHT22;3967;48.702;9.326;2023-04-08T05:54:17;8.40;99.90
7844;DHT22;3967;48.702;9.326;2023-04-08T05:56:43;8.40;99.90
7844;DHT22;3967;48.702;9.326;2023-04-08T05:59:11;8.30;99.90
7844;DHT22;3967;48.702;9.326;2023-04-08T06:01:38;8.40;99.90
7844;DHT22;3967;48.702;9.326;2023-04-08T06:04:05;8.40;99.90
7844;DHT22;3967;48.702;9.326;2023-04-08T06:06:32;8.40;99.90
7844;DHT22;3967;48.702;9.326;2023-04-08T06:08:59;8.40;99.90
7844;DHT22;3967;48.702;9.326;2023-04-08T06:11:26;8.40;99.90
7844;DHT22;3967;48.702;9.326;2023-04-08T06:13:52;8.30;99.90
7844;DHT22;3967;48.702;9.326;2023-04-08T06:16:19;8.20;99.90
7844;DHT22;3967;48.702;9.326;2023-04-08T06:18:47;8.20;99.90
7844;DHT22;3967;48.702;9.326;2023-04-08T06:21:14;8.20;99.90
7844;DHT22;3967;48.702;9.326;2023-04-08T06:23:41;8.20;99.90
7844;DHT22;3967;48.702;9.326;2023-04-08T06:26:08;8.10;99.90
7844;DHT22;3967;48.702;9.326;2023-04-08T06:28:34;8.10;99.90
7844;DHT22;3967;48.702;9.326;2023-04-08T06:31:01;8.20;99.90
7844;DHT22;3967;48.702;9.326;2023-04-08T06:33:28;8.20;99.90
7844;DHT22;3967;48.702;9.326;2023-04-08T06:36:05;8.20;99.90
7844;DHT22;3967;48.702;9.326;2023-04-08T06:38:33;8.20;99.90
7844;DHT22;3967;48.702;9.326;2023-04-08T06:41:04;8.30;99.90
7844;DHT22;3967;48.702;9.326;2023-04-08T06:43:31;8.30;99.90
7844;DHT22;3967;48.702;9.326;2023-04-08T06:45:58;8.30;99.90
7844;DHT22;3967;48.702;9.326;2023-04-08T06:48:25;8.20;99.90
7844;DHT22;3967;48.702;9.326;2023-04-08T06:50:57;8.20;99.90
7844;DHT22;3967;48.702;9.326;2023-04-08T06:53:25;8.30;99.90
7844;DHT22;3967;48.702;9.326;2023-04-08T06:55:52;8.40;99.90
7844;DHT22;3967;48.702;9.326;2023-04-08T06:58:18;8.40;99.90
7844;DHT22;3967;48.702;9.326;2023-04-08T07:00:46;8.40;99.90
7844;DHT22;3967;48.702;9.326;2023-04-08T07:03:13;8.50;99.90
7844;DHT22;3967;48.702;9.326;2023-04-08T07:05:40;8.50;99.90
7844;DHT22;3967;48.702;9.326;2023-04-08T07:08:08;8.40;99.90
7844;DHT22;3967;48.702;9.326;2023-04-08T07:10:34;8.50;99.90
7844;DHT22;3967;48.702;9.326;2023-04-08T07:13:01;8.50;99.90
7844;DHT22;3967;48.702;9.326;2023-04-08T07:15:28;8.50;99.90
7844;DHT22;3967;48.702;9.326;2023-04-08T07:17:55;8.50;99.90
7844;DHT22;3967;48.702;9.326;2023-04-08T07:20:22;8.50;99.90
7844;DHT22;3967;48.702;9.326;2023-04-08T07:22:49;8.40;99.90
7844;DHT22;3967;48.702;9.326;2023-04-08T07:25:16;8.40;99.90
7844;DHT22;3967;48.702;9.326;2023-04-08T07:27:43;8.40;99.90
7844;DHT22;3967;48.702;9.326;2023-04-08T07:30:10;8.50;99.90
7844;DHT22;3967;48.702;9.326;2023-04-08T07:32:37;8.40;99.90
7844;DHT22;3967;48.702;9.326;2023-04-08T07:35:04;8.50;99.90
7844;DHT22;3967;48.702;9.326;2023-04-08T07:37:31;8.50;99.90
7844;DHT22;3967;48.702;9.326;2023-04-08T07:39:58;8.50;99.90
7844;DHT22;3967;48.702;9.326;2023-04-08T07:42:24;8.50;99.90
7844;DHT22;3967;48.702;9.326;2023-04-08T07:44:51;8.70;99.90
7844;DHT22;3967;48.702;9.326;2023-04-08T07:47:18;8.80;99.90
7844;DHT22;3967;48.702;9.326;2023-04-08T07:49:45;9.10;99.90
7844;DHT22;3967;48.702;9.326;2023-04-08T07:52:13;9.20;99.90
7844;DHT22;3967;48.702;9.326;2023-04-08T07:54:40;9.10;99.90
7844;DHT22;3967;48.702;9.326;2023-04-08T07:57:07;9.10;99.90
7844;DHT22;3967;48.702;9.326;2023-04-08T07:59:34;9.10;99.90
7844;DHT22;3967;48.702;9.326;2023-04-08T08:02:01;9.20;99.90
7844;DHT22;3967;48.702;9.326;2023-04-08T08:04:28;9.10;99.90
7844;DHT22;3967;48.702;9.326;2023-04-08T08:06:55;9.10;99.90
7844;DHT22;3967;48.702;9.326;2023-04-08T08:09:22;9.20;99.90
7844;DHT22;3967;48.702;9.326;2023-04-08T08:11:49;9.40;99.90
7844;DHT22;3967;48.702;9.326;2023-04-08T08:14:15;9.50;99.90
7844;DHT22;3967;48.702;9.326;2023-04-08T08:16:42;9.50;99.90
7844;DHT22;3967;48.702;9.326;2023-04-08T08:19:10;9.50;99.90
7844;DHT22;3967;48.702;9.326;2023-04-08T08:21:37;9.60;99.90
7844;DHT22;3967;48.702;9.326;2023-04-08T08:24:05;9.40;99.90
7844;DHT22;3967;48.702;9.326;2023-04-08T08:26:35;9.60;99.90
7844;DHT22;3967;48.702;9.326;2023-04-08T08:29:03;9.70;99.90
7844;DHT22;3967;48.702;9.326;2023-04-08T08:31:30;9.70;99.90
7844;DHT22;3967;48.702;9.326;2023-04-08T08:33:57;9.70;99.90
7844;DHT22;3967;48.702;9.326;2023-04-08T08:36:23;9.60;99.90
7844;DHT22;3967;48.702;9.326;2023-04-08T08:38:50;9.70;99.90
7844;DHT22;3967;48.702;9.326;2023-04-08T08:41:19;9.80;99.90
7844;DHT22;3967;48.702;9.326;2023-04-08T08:43:47;9.80;99.90
7844;DHT22;3967;48.702;9.326;2023-04-08T08:46:16;9.90;99.90
7844;DHT22;3967;48.702;9.326;2023-04-08T08:48:43;9.90;99.90
7844;DHT22;3967;48.702;9.326;2023-04-08T08:51:11;10.00;99.50
7844;DHT22;3967;48.702;9.326;2023-04-08T08:53:39;10.00;99.60
7844;DHT22;3967;48.702;9.326;2023-04-08T08:56:13;10.00;99.80
7844;DHT22;3967;48.702;9.326;2023-04-08T08:58:44;10.00;99.70
7844;DHT22;3967;48.702;9.326;2023-04-08T09:01:33;10.20;98.40
7844;DHT22;3967;48.702;9.326;2023-04-08T09:04:18;10.50;98.40
7844;DHT22;3967;48.702;9.326;2023-04-08T09:06:47;10.50;97.20
7844;DHT22;3967;48.702;9.326;2023-04-08T09:09:16;10.50;96.00
7844;DHT22;3967;48.702;9.326;2023-04-08T09:11:44;10.50;95.60
7844;DHT22;3967;48.702;9.326;2023-04-08T09:16:48;10.70;95.80
7844;DHT22;3967;48.702;9.326;2023-04-08T09:19:16;10.70;93.90
7844;DHT22;3967;48.702;9.326;2023-04-08T09:21:42;10.90;94.60
7844;DHT22;3967;48.702;9.326;2023-04-08T09:24:29;10.90;93.50
7844;DHT22;3967;48.702;9.326;2023-04-08T09:26:56;11.00;93.70
7844;DHT22;3967;48.702;9.326;2023-04-08T09:29:24;11.10;92.50
7844;DHT22;3967;48.702;9.326;2023-04-08T09:32:00;11.10;93.90
7844;DHT22;3967;48.702;9.326;2023-04-08T09:34:28;11.40;93.20
7844;DHT22;3967;48.702;9.326;2023-04-08T09:36:56;11.30;92.60
7844;DHT22;3967;48.702;9.326;2023-04-08T09:39:23;11.30;91.50
7844;DHT22;3967;48.702;9.326;2023-04-08T09:41:50;11.50;91.50
7844;DHT22;3967;48.702;9.326;2023-04-08T09:44:20;11.40;91.90
7844;DHT22;3967;48.702;9.326;2023-04-08T09:47:08;11.60;91.20
7844;DHT22;3967;48.702;9.326;2023-04-08T09:49:51;11.90;91.50
7844;DHT22;3967;48.702;9.326;2023-04-08T09:52:23;11.70;89.20
7844;DHT22;3967;48.702;9.326;2023-04-08T09:55:02;11.70;88.30
7844;DHT22;3967;48.702;9.326;2023-04-08T10:00:15;12.10;88.10
7844;DHT22;3967;48.702;9.326;2023-04-08T10:05:17;12.10;86.70
7844;DHT22;3967;48.702;9.326;2023-04-08T10:07:45;11.90;84.80
7844;DHT22;3967;48.702;9.326;2023-04-08T10:10:11;11.80;83.50
7844;DHT22;3967;48.702;9.326;2023-04-08T10:12:39;12.00;84.50
7844;DHT22;3967;48.702;9.326;2023-04-08T10:15:24;12.10;84.10
7844;DHT22;3967;48.702;9.326;2023-04-08T10:23:11;12.00;82.00
7844;DHT22;3967;48.702;9.326;2023-04-08T10:25:41;11.90;78.60
7844;DHT22;3967;48.702;9.326;2023-04-08T10:30:39;11.90;78.80
7844;DHT22;3967;48.702;9.326;2023-04-08T10:38:25;12.00;78.80
7844;DHT22;3967;48.702;9.326;2023-04-08T10:40:53;12.00;77.70
7844;DHT22;3967;48.702;9.326;2023-04-08T10:43:20;11.80;78.60
7844;DHT22;3967;48.702;9.326;2023-04-08T10:45:47;11.90;78.90
7844;DHT22;3967;48.702;9.326;2023-04-08T10:48:22;12.00;77.40
7844;DHT22;3967;48.702;9.326;2023-04-08T10:50:56;11.80;76.60
7844;DHT22;3967;48.702;9.326;2023-04-08T10:56:08;11.50;75.50
7844;DHT22;3967;48.702;9.326;2023-04-08T11:01:15;11.40;75.30
7844;DHT22;3967;48.702;9.326;2023-04-08T11:03:42;11.30;75.20
7844;DHT22;3967;48.702;9.326;2023-04-08T11:06:10;11.30;76.00
7844;DHT22;3967;48.702;9.326;2023-04-08T11:08:37;11.30;75.60
7844;DHT22;3967;48.702;9.326;2023-04-08T11:11:04;11.30;75.90
7844;DHT22;3967;48.702;9.326;2023-04-08T11:13:38;11.30;76.20
7844;DHT22;3967;48.702;9.326;2023-04-08T11:16:07;11.40;76.00
7844;DHT22;3967;48.702;9.326;2023-04-08T11:18:44;11.40;76.60
7844;DHT22;3967;48.702;9.326;2023-04-08T11:21:11;11.60;77.10
7844;DHT22;3967;48.702;9.326;2023-04-08T11:23:38;11.60;77.30
7844;DHT22;3967;48.702;9.326;2023-04-08T11:26:05;11.70;77.40
7844;DHT22;3967;48.702;9.326;2023-04-08T11:28:33;11.50;77.00
7844;DHT22;3967;48.702;9.326;2023-04-08T11:31:01;11.60;77.40
7844;DHT22;3967;48.702;9.326;2023-04-08T11:33:30;11.80;77.10
7844;DHT22;3967;48.702;9.326;2023-04-08T11:35:59;11.80;76.90
7844;DHT22;3967;48.702;9.326;2023-04-08T11:38:26;11.80;73.50
7844;DHT22;3967;48.702;9.326;2023-04-08T11:40:54;11.70;73.10
7844;DHT22;3967;48.702;9.326;2023-04-08T11:43:21;11.80;74.30
7844;DHT22;3967;48.702;9.326;2023-04-08T11:45:49;11.90;75.00
7844;DHT22;3967;48.702;9.326;2023-04-08T11:48:16;11.80;74.90
7844;DHT22;3967;48.702;9.326;2023-04-08T11:50:43;11.70;76.10
7844;DHT22;3967;48.702;9.326;2023-04-08T11:53:21;11.60;76.30
7844;DHT22;3967;48.702;9.326;2023-04-08T11:55:48;11.80;76.50
7844;DHT22;3967;48.702;9.326;2023-04-08T11:58:15;11.80;74.80
7844;DHT22;3967;48.702;9.326;2023-04-08T12:00:42;11.80;72.10
7844;DHT22;3967;48.702;9.326;2023-04-08T12:03:09;11.70;69.90
7844;DHT22;3967;48.702;9.326;2023-04-08T12:05:36;11.80;71.90
7844;DHT22;3967;48.702;9.326;2023-04-08T12:08:03;12.00;73.30
7844;DHT22;3967;48.702;9.326;2023-04-08T12:10:30;12.10;72.00
7844;DHT22;3967;48.702;9.326;2023-04-08T12:12:57;11.70;71.00
7844;DHT22;3967;48.702;9.326;2023-04-08T12:15:24;11.80;70.40
7844;DHT22;3967;48.702;9.326;2023-04-08T12:17:50;11.70;70.50
7844;DHT22;3967;48.702;9.326;2023-04-08T12:20:17;11.70;73.60
7844;DHT22;3967;48.702;9.326;2023-04-08T12:22:44;11.70;74.00
7844;DHT22;3967;48.702;9.326;2023-04-08T12:25:11;11.90;74.40
7844;DHT22;3967;48.702;9.326;2023-04-08T12:27:37;12.00;74.30
7844;DHT22;3967;48.702;9.326;2023-04-08T12:30:05;11.90;73.40
7844;DHT22;3967;48.702;9.326;2023-04-08T12:32:31;11.80;75.00
7844;DHT22;3967;48.702;9.326;2023-04-08T12:34:59;11.90;73.40
7844;DHT22;3967;48.702;9.326;2023-04-08T12:37:25;12.00;72.60
7844;DHT22;3967;48.702;9.326;2023-04-08T12:39:53;12.00;72.20
7844;DHT22;3967;48.702;9.326;2023-04-08T12:42:20;11.90;72.10
7844;DHT22;3967;48.702;9.326;2023-04-08T12:44:46;12.10;73.70
7844;DHT22;3967;48.702;9.326;2023-04-08T12:47:13;12.20;74.40
7844;DHT22;3967;48.702;9.326;2023-04-08T12:49:40;12.30;74.00
7844;DHT22;3967;48.702;9.326;2023-04-08T12:52:09;12.20;73.20
7844;DHT22;3967;48.702;9.326;2023-04-08T12:54:36;12.10;72.90
7844;DHT22;3967;48.702;9.326;2023-04-08T12:57:03;11.90;72.60
7844;DHT22;3967;48.702;9.326;2023-04-08T12:59:30;12.10;72.50
7844;DHT22;3967;48.702;9.326;2023-04-08T13:01:57;12.30;71.80
7844;DHT22;3967;48.702;9.326;2023-04-08T13:04:27;12.10;71.40
7844;DHT22;3967;48.702;9.326;2023-04-08T13:06:53;12.00;71.40
7844;DHT22;3967;48.702;9.326;2023-04-08T13:09:21;12.00;72.40
7844;DHT22;3967;48.702;9.326;2023-04-08T13:11:48;12.00;72.40
7844;DHT22;3967;48.702;9.326;2023-04-08T13:14:14;11.90;72.50
7844;DHT22;3967;48.702;9.326;2023-04-08T13:16:41;12.20;73.20
7844;DHT22;3967;48.702;9.326;2023-04-08T13:19:08;12.10;72.90
7844;DHT22;3967;48.702;9.326;2023-04-08T13:21:35;12.10;72.80
7844;DHT22;3967;48.702;9.326;2023-04-08T13:24:01;12.00;72.00
7844;DHT22;3967;48.702;9.326;2023-04-08T13:26:28;12.20;73.20
7844;DHT22;3967;48.702;9.326;2023-04-08T13:28:55;12.30;72.40
7844;DHT22;3967;48.702;9.326;2023-04-08T13:31:24;12.30;71.80
7844;DHT22;3967;48.702;9.326;2023-04-08T13:33:51;12.30;71.60
7844;DHT22;3967;48.702;9.326;2023-04-08T13:36:22;11.90;73.20
7844;DHT22;3967;48.702;9.326;2023-04-08T13:38:49;12.00;73.80
7844;DHT22;3967;48.702;9.326;2023-04-08T13:41:16;12.20;73.70
7844;DHT22;3967;48.702;9.326;2023-04-08T13:43:43;11.80;73.30
7844;DHT22;3967;48.702;9.326;2023-04-08T13:46:09;12.00;73.80
7844;DHT22;3967;48.702;9.326;2023-04-08T13:48:36;12.20;74.20
7844;DHT22;3967;48.702;9.326;2023-04-08T13:51:03;12.10;73.80
7844;DHT22;3967;48.702;9.326;2023-04-08T13:53:30;11.90;74.10
7844;DHT22;3967;48.702;9.326;2023-04-08T13:55:57;12.00;74.00
7844;DHT22;3967;48.702;9.326;2023-04-08T13:58:24;12.10;74.00
7844;DHT22;3967;48.702;9.326;2023-04-08T14:00:54;12.20;74.10
7844;DHT22;3967;48.702;9.326;2023-04-08T14:03:21;12.20;73.70
7844;DHT22;3967;48.702;9.326;2023-04-08T14:05:48;12.10;74.40
7844;DHT22;3967;48.702;9.326;2023-04-08T14:08:16;12.20;74.30
7844;DHT22;3967;48.702;9.326;2023-04-08T14:10:50;12.20;74.80
7844;DHT22;3967;48.702;9.326;2023-04-08T14:13:17;12.20;74.80
7844;DHT22;3967;48.702;9.326;2023-04-08T14:15:44;12.10;74.90
7844;DHT22;3967;48.702;9.326;2023-04-08T14:18:12;12.10;75.20
7844;DHT22;3967;48.702;9.326;2023-04-08T14:20:39;12.20;75.30
7844;DHT22;3967;48.702;9.326;2023-04-08T14:23:06;12.30;75.10
7844;DHT22;3967;48.702;9.326;2023-04-08T14:25:33;12.30;74.30
7844;DHT22;3967;48.702;9.326;2023-04-08T14:28:00;12.20;74.50
7844;DHT22;3967;48.702;9.326;2023-04-08T14:30:27;12.20;75.00
7844;DHT22;3967;48.702;9.326;2023-04-08T14:32:54;12.10;74.60
7844;DHT22;3967;48.702;9.326;2023-04-08T14:35:21;12.10;74.80
7844;DHT22;3967;48.702;9.326;2023-04-08T14:37:48;12.00;74.80
7844;DHT22;3967;48.702;9.326;2023-04-08T14:40:15;12.00;75.30
7844;DHT22;3967;48.702;9.326;2023-04-08T14:42:42;12.00;75.30
7844;DHT22;3967;48.702;9.326;2023-04-08T14:45:10;11.90;75.90
7844;DHT22;3967;48.702;9.326;2023-04-08T14:47:36;12.00;76.70
7844;DHT22;3967;48.702;9.326;2023-04-08T14:50:04;11.90;76.40
7844;DHT22;3967;48.702;9.326;2023-04-08T14:52:31;12.10;76.90
7844;DHT22;3967;48.702;9.326;2023-04-08T14:54:58;11.80;76.10
7844;DHT22;3967;48.702;9.326;2023-04-08T14:57:25;11.90;76.50
7844;DHT22;3967;48.702;9.326;2023-04-08T14:59:51;11.90;77.20
7844;DHT22;3967;48.702;9.326;2023-04-08T15:02:18;11.80;76.40
7844;DHT22;3967;48.702;9.326;2023-04-08T15:04:45;12.00;76.20
7844;DHT22;3967;48.702;9.326;2023-04-08T15:07:12;12.10;76.40
7844;DHT22;3967;48.702;9.326;2023-04-08T15:09:39;12.00;75.60
7844;DHT22;3967;48.702;9.326;2023-04-08T15:12:05;12.00;75.80
7844;DHT22;3967;48.702;9.326;2023-04-08T15:14:32;11.90;76.30
7844;DHT22;3967;48.702;9.326;2023-04-08T15:16:59;11.90;74.80
7844;DHT22;3967;48.702;9.326;2023-04-08T15:19:26;12.00;75.00
7844;DHT22;3967;48.702;9.326;2023-04-08T15:21:52;12.20;75.10
7844;DHT22;3967;48.702;9.326;2023-04-08T15:24:19;12.10;74.90
7844;DHT22;3967;48.702;9.326;2023-04-08T15:26:46;11.90;75.10
7844;DHT22;3967;48.702;9.326;2023-04-08T15:29:14;11.60;75.70
7844;DHT22;3967;48.702;9.326;2023-04-08T15:31:41;11.40;75.80
7844;DHT22;3967;48.702;9.326;2023-04-08T15:34:08;11.50;76.60
7844;DHT22;3967;48.702;9.326;2023-04-08T15:36:34;11.60;76.20
7844;DHT22;3967;48.702;9.326;2023-04-08T15:39:02;11.60;75.80
7844;DHT22;3967;48.702;9.326;2023-04-08T15:41:29;11.60;76.10
7844;DHT22;3967;48.702;9.326;2023-04-08T15:43:57;11.50;76.40
7844;DHT22;3967;48.702;9.326;2023-04-08T15:46:24;11.50;76.40
7844;DHT22;3967;48.702;9.326;2023-04-08T15:48:51;11.50;76.90
7844;DHT22;3967;48.702;9.326;2023-04-08T15:51:18;11.40;76.70
7844;DHT22;3967;48.702;9.326;2023-04-08T15:53:46;11.50;77.50
7844;DHT22;3967;48.702;9.326;2023-04-08T15:56:13;11.50;77.60
7844;DHT22;3967;48.702;9.326;2023-04-08T15:58:42;11.70;77.60
7844;DHT22;3967;48.702;9.326;2023-04-08T16:01:09;11.70;77.50
7844;DHT22;3967;48.702;9.326;2023-04-08T16:03:36;11.70;77.80
7844;DHT22;3967;48.702;9.326;2023-04-08T16:06:03;11.50;78.20
7844;DHT22;3967;48.702;9.326;2023-04-08T16:08:32;11.80;78.90
7844;DHT22;3967;48.702;9.326;2023-04-08T16:11:00;11.90;77.50
7844;DHT22;3967;48.702;9.326;2023-04-08T16:13:28;11.90;76.90
7844;DHT22;3967;48.702;9.326;2023-04-08T16:16:00;11.70;76.70
7844;DHT22;3967;48.702;9.326;2023-04-08T16:18:28;11.60;76.50
7844;DHT22;3967;48.702;9.326;2023-04-08T16:20:55;11.60;76.90
7844;DHT22;3967;48.702;9.326;2023-04-08T16:23:22;11.40;77.70
7844;DHT22;3967;48.702;9.326;2023-04-08T16:25:49;11.20;77.50
7844;DHT22;3967;48.702;9.326;2023-04-08T16:28:16;11.10;78.80
7844;DHT22;3967;48.702;9.326;2023-04-08T16:30:43;11.00;78.60
7844;DHT22;3967;48.702;9.326;2023-04-08T16:33:11;11.00;79.40
7844;DHT22;3967;48.702;9.326;2023-04-08T16:35:38;10.90;79.60
7844;DHT22;3967;48.702;9.326;2023-04-08T16:38:05;10.90;79.30
7844;DHT22;3967;48.702;9.326;2023-04-08T16:40:32;10.90;79.30
7844;DHT22;3967;48.702;9.326;2023-04-08T16:43:00;11.10;79.30